sensor_id;sensor_type;location;lat;lon;timestamp;P1;durP1;ratioP1;P2;durP2;ratioP2
49472;SDS011;73594;50.944;6.950;2023-11-21T00:01:52;1.92;;;1.15;;
49472;SDS011;73594;50.944;6.950;2023-11-21T00:04:18;1.85;;;1.70;;
49472;SDS011;73594;50.944;6.950;2023-11-21T00:06:43;3.30;;;0.95;;
49472;SDS011;73594;50.944;6.950;2023-11-21T00:09:12;1.05;;;0.40;;
49472;SDS011;73594;50.944;6.950;2023-11-21T00:11:38;0.57;;;0.57;;
49472;SDS011;73594;50.944;6.950;2023-11-21T00:14:03;1.60;;;0.73;;
49472;SDS011;73594;50.944;6.950;2023-11-21T00:16:29;1.10;;;1.00;;
49472;SDS011;73594;50.944;6.950;2023-11-21T00:18:54;0.95;;;0.93;;
49472;SDS011;73594;50.944;6.950;2023-11-21T00:21:20;1.42;;;1.10;;
49472;SDS011;73594;50.944;6.950;2023-11-21T00:23:45;2.25;;;1.63;;
49472;SDS011;73594;50.944;6.950;2023-11-21T00:26:11;1.45;;;1.05;;
49472;SDS011;73594;50.944;6.950;2023-11-21T00:28:36;3.58;;;1.27;;
49472;SDS011;73594;50.944;6.950;2023-11-21T00:31:01;0.98;;;0.82;;
49472;SDS011;73594;50.944;6.950;2023-11-21T00:33:27;2.65;;;0.95;;
49472;SDS011;73594;50.944;6.950;2023-11-21T00:35:52;2.85;;;1.17;;
49472;SDS011;73594;50.944;6.950;2023-11-21T00:38:17;2.83;;;1.17;;
49472;SDS011;73594;50.944;6.950;2023-11-21T00:40:47;2.13;;;1.20;;
49472;SDS011;73594;50.944;6.950;2023-11-21T00:43:13;3.40;;;1.65;;
49472;SDS011;73594;50.944;6.950;2023-11-21T00:45:38;1.40;;;0.93;;
49472;SDS011;73594;50.944;6.950;2023-11-21T00:48:05;1.40;;;1.00;;
49472;SDS011;73594;50.944;6.950;2023-11-21T00:50:30;2.42;;;0.77;;
49472;SDS011;73594;50.944;6.950;2023-11-21T00:52:57;4.30;;;2.45;;
49472;SDS011;73594;50.944;6.950;2023-11-21T00:55:22;3.53;;;2.70;;
49472;SDS011;73594;50.944;6.950;2023-11-21T00:57:48;1.45;;;1.13;;
49472;SDS011;73594;50.944;6.950;2023-11-21T01:00:13;3.67;;;1.50;;
49472;SDS011;73594;50.944;6.950;2023-11-21T01:02:42;2.53;;;0.95;;
49472;SDS011;73594;50.944;6.950;2023-11-21T01:05:10;2.25;;;1.67;;
49472;SDS011;73594;50.944;6.950;2023-11-21T01:07:35;8.93;;;1.50;;
49472;SDS011;73594;50.944;6.950;2023-11-21T01:10:02;3.20;;;1.42;;
49472;SDS011;73594;50.944;6.950;2023-11-21T01:12:30;2.40;;;1.67;;
49472;SDS011;73594;50.944;6.950;2023-11-21T01:14:56;5.07;;;1.63;;
49472;SDS011;73594;50.944;6.950;2023-11-21T01:17:25;2.28;;;0.77;;
49472;SDS011;73594;50.944;6.950;2023-11-21T01:19:50;1.15;;;1.05;;
49472;SDS011;73594;50.944;6.950;2023-11-21T01:22:16;2.22;;;1.55;;
49472;SDS011;73594;50.944;6.950;2023-11-21T01:24:41;2.38;;;1.23;;
49472;SDS011;73594;50.944;6.950;2023-11-21T01:27:06;2.67;;;2.05;;
49472;SDS011;73594;50.944;6.950;2023-11-21T01:29:32;4.70;;;2.22;;
49472;SDS011;73594;50.944;6.950;2023-11-21T01:31:57;8.95;;;1.70;;
49472;SDS011;73594;50.944;6.950;2023-11-21T01:34:23;4.13;;;1.48;;
49472;SDS011;73594;50.944;6.950;2023-11-21T01:36:48;1.75;;;1.52;;
49472;SDS011;73594;50.944;6.950;2023-11-21T01:39:14;2.28;;;1.42;;
49472;SDS011;73594;50.944;6.950;2023-11-21T01:41:41;3.72;;;2.15;;
49472;SDS011;73594;50.944;6.950;2023-11-21T01:44:09;3.47;;;2.42;;
49472;SDS011;73594;50.944;6.950;2023-11-21T01:46:35;4.13;;;1.50;;
49472;SDS011;73594;50.944;6.950;2023-11-21T01:49:00;2.25;;;1.58;;
49472;SDS011;73594;50.944;6.950;2023-11-21T01:51:26;2.05;;;1.45;;
49472;SDS011;73594;50.944;6.950;2023-11-21T01:53:51;1.30;;;1.20;;
49472;SDS011;73594;50.944;6.950;2023-11-21T01:56:17;1.17;;;0.75;;
49472;SDS011;73594;50.944;6.950;2023-11-21T01:58:43;2.95;;;0.88;;
49472;SDS011;73594;50.944;6.950;2023-11-21T02:01:09;2.25;;;1.70;;
49472;SDS011;73594;50.944;6.950;2023-11-21T02:03:35;4.13;;;1.45;;
49472;SDS011;73594;50.944;6.950;2023-11-21T02:06:00;2.08;;;1.08;;
49472;SDS011;73594;50.944;6.950;2023-11-21T02:08:26;1.85;;;1.20;;
49472;SDS011;73594;50.944;6.950;2023-11-21T02:10:52;5.50;;;1.63;;
49472;SDS011;73594;50.944;6.950;2023-11-21T02:13:17;1.08;;;0.98;;
49472;SDS011;73594;50.944;6.950;2023-11-21T02:15:43;8.25;;;1.23;;
49472;SDS011;73594;50.944;6.950;2023-11-21T02:18:08;1.95;;;1.85;;
49472;SDS011;73594;50.944;6.950;2023-11-21T02:20:35;3.67;;;1.88;;
49472;SDS011;73594;50.944;6.950;2023-11-21T02:23:02;3.13;;;1.92;;
49472;SDS011;73594;50.944;6.950;2023-11-21T02:25:31;4.38;;;2.92;;
49472;SDS011;73594;50.944;6.950;2023-11-21T02:27:58;3.20;;;1.02;;
49472;SDS011;73594;50.944;6.950;2023-11-21T02:30:25;2.72;;;1.75;;
49472;SDS011;73594;50.944;6.950;2023-11-21T02:32:51;10.73;;;2.78;;
49472;SDS011;73594;50.944;6.950;2023-11-21T02:35:19;1.27;;;1.17;;
49472;SDS011;73594;50.944;6.950;2023-11-21T02:37:51;2.65;;;1.83;;
49472;SDS011;73594;50.944;6.950;2023-11-21T02:40:17;4.72;;;2.00;;
49472;SDS011;73594;50.944;6.950;2023-11-21T02:42:46;2.00;;;1.83;;
49472;SDS011;73594;50.944;6.950;2023-11-21T02:45:13;2.95;;;2.75;;
49472;SDS011;73594;50.944;6.950;2023-11-21T02:47:41;9.05;;;2.88;;
49472;SDS011;73594;50.944;6.950;2023-11-21T02:50:08;4.05;;;2.10;;
49472;SDS011;73594;50.944;6.950;2023-11-21T02:52:34;3.35;;;1.95;;
49472;SDS011;73594;50.944;6.950;2023-11-21T02:55:00;4.43;;;1.95;;
49472;SDS011;73594;50.944;6.950;2023-11-21T02:57:25;3.22;;;2.92;;
49472;SDS011;73594;50.944;6.950;2023-11-21T02:59:51;3.42;;;2.33;;
49472;SDS011;73594;50.944;6.950;2023-11-21T03:02:16;7.00;;;3.38;;
49472;SDS011;73594;50.944;6.950;2023-11-21T03:04:42;2.13;;;1.73;;
49472;SDS011;73594;50.944;6.950;2023-11-21T03:07:08;3.67;;;2.67;;
49472;SDS011;73594;50.944;6.950;2023-11-21T03:09:34;4.45;;;3.80;;
49472;SDS011;73594;50.944;6.950;2023-11-21T03:12:00;4.80;;;2.53;;
49472;SDS011;73594;50.944;6.950;2023-11-21T03:14:25;2.50;;;2.25;;
49472;SDS011;73594;50.944;6.950;2023-11-21T03:16:51;5.28;;;3.45;;
49472;SDS011;73594;50.944;6.950;2023-11-21T03:19:16;7.82;;;1.95;;
49472;SDS011;73594;50.944;6.950;2023-11-21T03:21:42;2.08;;;1.35;;
49472;SDS011;73594;50.944;6.950;2023-11-21T03:24:07;5.75;;;2.10;;
49472;SDS011;73594;50.944;6.950;2023-11-21T03:26:33;1.80;;;1.05;;
49472;SDS011;73594;50.944;6.950;2023-11-21T03:28:58;3.00;;;2.42;;
49472;SDS011;73594;50.944;6.950;2023-11-21T03:31:24;1.13;;;1.02;;
49472;SDS011;73594;50.944;6.950;2023-11-21T03:33:49;4.50;;;2.70;;
49472;SDS011;73594;50.944;6.950;2023-11-21T03:36:15;1.83;;;1.20;;
49472;SDS011;73594;50.944;6.950;2023-11-21T03:38:40;1.88;;;0.88;;
49472;SDS011;73594;50.944;6.950;2023-11-21T03:41:07;3.78;;;1.80;;
49472;SDS011;73594;50.944;6.950;2023-11-21T03:43:35;1.40;;;1.30;;
49472;SDS011;73594;50.944;6.950;2023-11-21T03:46:01;2.40;;;2.13;;
49472;SDS011;73594;50.944;6.950;2023-11-21T03:48:26;2.05;;;1.95;;
49472;SDS011;73594;50.944;6.950;2023-11-21T03:50:52;5.15;;;1.98;;
49472;SDS011;73594;50.944;6.950;2023-11-21T03:53:17;2.75;;;1.55;;
49472;SDS011;73594;50.944;6.950;2023-11-21T03:55:42;2.90;;;0.93;;
49472;SDS011;73594;50.944;6.950;2023-11-21T03:58:08;2.45;;;1.27;;
49472;SDS011;73594;50.944;6.950;2023-11-21T04:00:33;8.20;;;3.13;;
49472;SDS011;73594;50.944;6.950;2023-11-21T04:02:59;4.60;;;2.70;;
49472;SDS011;73594;50.944;6.950;2023-11-21T04:05:24;6.32;;;2.22;;
49472;SDS011;73594;50.944;6.950;2023-11-21T04:07:50;3.67;;;2.08;;
49472;SDS011;73594;50.944;6.950;2023-11-21T04:10:16;1.85;;;1.75;;
49472;SDS011;73594;50.944;6.950;2023-11-21T04:12:43;5.18;;;3.05;;
49472;SDS011;73594;50.944;6.950;2023-11-21T04:15:08;7.65;;;3.08;;
49472;SDS011;73594;50.944;6.950;2023-11-21T04:17:34;9.73;;;3.65;;
49472;SDS011;73594;50.944;6.950;2023-11-21T04:20:00;2.72;;;1.85;;
49472;SDS011;73594;50.944;6.950;2023-11-21T04:22:25;4.00;;;3.63;;
49472;SDS011;73594;50.944;6.950;2023-11-21T04:24:51;2.80;;;1.85;;
49472;SDS011;73594;50.944;6.950;2023-11-21T04:27:16;4.28;;;2.05;;
49472;SDS011;73594;50.944;6.950;2023-11-21T04:29:45;2.22;;;2.05;;
49472;SDS011;73594;50.944;6.950;2023-11-21T04:32:10;2.22;;;1.48;;
49472;SDS011;73594;50.944;6.950;2023-11-21T04:34:35;7.38;;;3.58;;
49472;SDS011;73594;50.944;6.950;2023-11-21T04:37:01;2.25;;;1.92;;
49472;SDS011;73594;50.944;6.950;2023-11-21T04:39:28;4.30;;;1.35;;
49472;SDS011;73594;50.944;6.950;2023-11-21T04:41:53;2.53;;;2.00;;
49472;SDS011;73594;50.944;6.950;2023-11-21T04:44:18;2.55;;;1.27;;
49472;SDS011;73594;50.944;6.950;2023-11-21T04:46:44;2.22;;;1.98;;
49472;SDS011;73594;50.944;6.950;2023-11-21T04:49:09;4.38;;;2.40;;
49472;SDS011;73594;50.944;6.950;2023-11-21T04:51:36;3.38;;;2.92;;
49472;SDS011;73594;50.944;6.950;2023-11-21T04:54:01;4.95;;;1.95;;
49472;SDS011;73594;50.944;6.950;2023-11-21T04:56:26;4.35;;;2.00;;
49472;SDS011;73594;50.944;6.950;2023-11-21T04:58:52;4.10;;;2.05;;
49472;SDS011;73594;50.944;6.950;2023-11-21T05:01:18;4.18;;;2.85;;
49472;SDS011;73594;50.944;6.950;2023-11-21T05:03:44;5.00;;;2.90;;
49472;SDS011;73594;50.944;6.950;2023-11-21T05:06:09;2.72;;;1.00;;
49472;SDS011;73594;50.944;6.950;2023-11-21T05:08:35;2.50;;;2.30;;
49472;SDS011;73594;50.944;6.950;2023-11-21T05:11:03;7.72;;;2.33;;
49472;SDS011;73594;50.944;6.950;2023-11-21T05:13:28;8.48;;;2.85;;
49472;SDS011;73594;50.944;6.950;2023-11-21T05:15:54;3.17;;;1.23;;
49472;SDS011;73594;50.944;6.950;2023-11-21T05:18:23;4.18;;;2.03;;
49472;SDS011;73594;50.944;6.950;2023-11-21T05:20:54;2.10;;;1.90;;
49472;SDS011;73594;50.944;6.950;2023-11-21T05:23:20;3.35;;;1.40;;
49472;SDS011;73594;50.944;6.950;2023-11-21T05:25:45;2.03;;;1.90;;
49472;SDS011;73594;50.944;6.950;2023-11-21T05:28:11;3.75;;;2.80;;
49472;SDS011;73594;50.944;6.950;2023-11-21T05:30:37;7.90;;;1.85;;
49472;SDS011;73594;50.944;6.950;2023-11-21T05:33:04;1.95;;;1.40;;
49472;SDS011;73594;50.944;6.950;2023-11-21T05:35:29;1.60;;;0.98;;
49472;SDS011;73594;50.944;6.950;2023-11-21T05:37:55;2.08;;;1.80;;
49472;SDS011;73594;50.944;6.950;2023-11-21T05:40:20;2.80;;;1.42;;
49472;SDS011;73594;50.944;6.950;2023-11-21T05:42:47;2.97;;;1.40;;
49472;SDS011;73594;50.944;6.950;2023-11-21T05:45:13;3.67;;;2.20;;
49472;SDS011;73594;50.944;6.950;2023-11-21T05:47:42;2.65;;;1.63;;
49472;SDS011;73594;50.944;6.950;2023-11-21T05:50:09;3.33;;;2.92;;
49472;SDS011;73594;50.944;6.950;2023-11-21T05:52:37;0.93;;;0.88;;
49472;SDS011;73594;50.944;6.950;2023-11-21T05:55:04;5.25;;;2.47;;
49472;SDS011;73594;50.944;6.950;2023-11-21T05:57:32;5.47;;;1.45;;
49472;SDS011;73594;50.944;6.950;2023-11-21T06:00:03;4.10;;;2.00;;
49472;SDS011;73594;50.944;6.950;2023-11-21T06:02:38;7.15;;;2.45;;
49472;SDS011;73594;50.944;6.950;2023-11-21T06:05:04;6.07;;;2.55;;
49472;SDS011;73594;50.944;6.950;2023-11-21T06:07:31;4.65;;;3.05;;
49472;SDS011;73594;50.944;6.950;2023-11-21T06:09:59;7.10;;;2.55;;
49472;SDS011;73594;50.944;6.950;2023-11-21T06:12:24;10.02;;;4.07;;
49472;SDS011;73594;50.944;6.950;2023-11-21T06:14:50;2.80;;;0.93;;
49472;SDS011;73594;50.944;6.950;2023-11-21T06:17:16;2.15;;;1.67;;
49472;SDS011;73594;50.944;6.950;2023-11-21T06:19:43;1.33;;;0.95;;
49472;SDS011;73594;50.944;6.950;2023-11-21T06:22:10;1.38;;;1.20;;
49472;SDS011;73594;50.944;6.950;2023-11-21T06:24:36;2.42;;;2.03;;
49472;SDS011;73594;50.944;6.950;2023-11-21T06:27:03;5.03;;;1.52;;
49472;SDS011;73594;50.944;6.950;2023-11-21T06:29:29;3.60;;;1.83;;
49472;SDS011;73594;50.944;6.950;2023-11-21T06:31:55;1.50;;;1.40;;
49472;SDS011;73594;50.944;6.950;2023-11-21T06:34:20;1.90;;;1.17;;
49472;SDS011;73594;50.944;6.950;2023-11-21T06:36:46;2.67;;;1.38;;
49472;SDS011;73594;50.944;6.950;2023-11-21T06:39:12;2.55;;;1.77;;
49472;SDS011;73594;50.944;6.950;2023-11-21T06:41:40;2.45;;;2.25;;
49472;SDS011;73594;50.944;6.950;2023-11-21T06:44:05;4.38;;;2.58;;
49472;SDS011;73594;50.944;6.950;2023-11-21T06:46:30;5.32;;;3.45;;
49472;SDS011;73594;50.944;6.950;2023-11-21T06:48:56;12.88;;;2.75;;
49472;SDS011;73594;50.944;6.950;2023-11-21T06:51:21;2.63;;;2.42;;
49472;SDS011;73594;50.944;6.950;2023-11-21T06:53:46;7.55;;;1.83;;
49472;SDS011;73594;50.944;6.950;2023-11-21T06:56:18;6.55;;;2.60;;
49472;SDS011;73594;50.944;6.950;2023-11-21T06:58:44;5.63;;;1.58;;
49472;SDS011;73594;50.944;6.950;2023-11-21T07:01:11;2.70;;;1.70;;
49472;SDS011;73594;50.944;6.950;2023-11-21T07:03:36;3.47;;;2.03;;
49472;SDS011;73594;50.944;6.950;2023-11-21T07:06:02;5.75;;;2.00;;
49472;SDS011;73594;50.944;6.950;2023-11-21T07:08:28;3.35;;;3.05;;
49472;SDS011;73594;50.944;6.950;2023-11-21T07:10:54;5.07;;;3.15;;
49472;SDS011;73594;50.944;6.950;2023-11-21T07:13:19;2.88;;;1.27;;
49472;SDS011;73594;50.944;6.950;2023-11-21T07:15:44;2.55;;;2.33;;
49472;SDS011;73594;50.944;6.950;2023-11-21T07:18:10;4.40;;;3.20;;
49472;SDS011;73594;50.944;6.950;2023-11-21T07:20:36;11.60;;;4.47;;
49472;SDS011;73594;50.944;6.950;2023-11-21T07:23:02;6.80;;;3.35;;
49472;SDS011;73594;50.944;6.950;2023-11-21T07:25:28;11.13;;;4.80;;
49472;SDS011;73594;50.944;6.950;2023-11-21T07:27:54;5.82;;;3.05;;
49472;SDS011;73594;50.944;6.950;2023-11-21T07:30:20;8.27;;;4.18;;
49472;SDS011;73594;50.944;6.950;2023-11-21T07:32:47;9.75;;;4.15;;
49472;SDS011;73594;50.944;6.950;2023-11-21T07:35:13;11.02;;;2.88;;
49472;SDS011;73594;50.944;6.950;2023-11-21T07:37:38;2.97;;;1.15;;
49472;SDS011;73594;50.944;6.950;2023-11-21T07:40:04;7.60;;;4.10;;
49472;SDS011;73594;50.944;6.950;2023-11-21T07:42:30;2.80;;;2.28;;
49472;SDS011;73594;50.944;6.950;2023-11-21T07:44:55;5.25;;;2.60;;
49472;SDS011;73594;50.944;6.950;2023-11-21T07:47:21;3.55;;;3.08;;
49472;SDS011;73594;50.944;6.950;2023-11-21T07:49:47;3.00;;;1.85;;
49472;SDS011;73594;50.944;6.950;2023-11-21T07:52:13;6.43;;;3.25;;
49472;SDS011;73594;50.944;6.950;2023-11-21T07:54:41;7.15;;;3.38;;
49472;SDS011;73594;50.944;6.950;2023-11-21T07:57:06;4.80;;;2.67;;
49472;SDS011;73594;50.944;6.950;2023-11-21T07:59:32;10.00;;;2.88;;
49472;SDS011;73594;50.944;6.950;2023-11-21T08:01:58;11.48;;;3.55;;
49472;SDS011;73594;50.944;6.950;2023-11-21T08:04:23;8.50;;;4.55;;
49472;SDS011;73594;50.944;6.950;2023-11-21T08:06:48;3.92;;;2.05;;
49472;SDS011;73594;50.944;6.950;2023-11-21T08:09:14;3.90;;;3.00;;
49472;SDS011;73594;50.944;6.950;2023-11-21T08:11:40;5.65;;;3.22;;
49472;SDS011;73594;50.944;6.950;2023-11-21T08:14:06;3.97;;;3.00;;
49472;SDS011;73594;50.944;6.950;2023-11-21T08:16:31;8.65;;;3.33;;
49472;SDS011;73594;50.944;6.950;2023-11-21T08:18:57;5.15;;;3.75;;
49472;SDS011;73594;50.944;6.950;2023-11-21T08:21:23;3.10;;;2.80;;
49472;SDS011;73594;50.944;6.950;2023-11-21T08:23:54;7.50;;;3.17;;
49472;SDS011;73594;50.944;6.950;2023-11-21T08:26:21;3.17;;;2.85;;
49472;SDS011;73594;50.944;6.950;2023-11-21T08:28:47;11.20;;;3.35;;
49472;SDS011;73594;50.944;6.950;2023-11-21T08:31:12;4.57;;;2.17;;
49472;SDS011;73594;50.944;6.950;2023-11-21T08:33:38;6.43;;;3.58;;
49472;SDS011;73594;50.944;6.950;2023-11-21T08:36:07;7.22;;;4.50;;
49472;SDS011;73594;50.944;6.950;2023-11-21T08:38:33;3.15;;;2.63;;
49472;SDS011;73594;50.944;6.950;2023-11-21T08:41:02;7.20;;;4.57;;
49472;SDS011;73594;50.944;6.950;2023-11-21T08:43:32;6.75;;;4.60;;
49472;SDS011;73594;50.944;6.950;2023-11-21T08:45:59;8.32;;;3.20;;
49472;SDS011;73594;50.944;6.950;2023-11-21T08:48:24;2.42;;;1.83;;
49472;SDS011;73594;50.944;6.950;2023-11-21T08:50:50;15.80;;;2.92;;
49472;SDS011;73594;50.944;6.950;2023-11-21T08:53:16;4.35;;;3.35;;
49472;SDS011;73594;50.944;6.950;2023-11-21T08:55:41;6.90;;;3.47;;
49472;SDS011;73594;50.944;6.950;2023-11-21T08:58:09;3.50;;;2.13;;
49472;SDS011;73594;50.944;6.950;2023-11-21T09:00:34;3.45;;;1.40;;
49472;SDS011;73594;50.944;6.950;2023-11-21T09:03:01;6.30;;;3.40;;
49472;SDS011;73594;50.944;6.950;2023-11-21T09:05:27;4.45;;;2.45;;
49472;SDS011;73594;50.944;6.950;2023-11-21T09:07:53;10.75;;;4.70;;
49472;SDS011;73594;50.944;6.950;2023-11-21T09:10:18;6.38;;;5.13;;
49472;SDS011;73594;50.944;6.950;2023-11-21T09:12:44;8.63;;;3.97;;
49472;SDS011;73594;50.944;6.950;2023-11-21T09:15:09;10.90;;;3.30;;
49472;SDS011;73594;50.944;6.950;2023-11-21T09:17:36;2.88;;;1.15;;
49472;SDS011;73594;50.944;6.950;2023-11-21T09:20:02;7.03;;;2.95;;
49472;SDS011;73594;50.944;6.950;2023-11-21T09:22:31;3.13;;;2.25;;
49472;SDS011;73594;50.944;6.950;2023-11-21T09:24:56;6.45;;;4.53;;
49472;SDS011;73594;50.944;6.950;2023-11-21T09:27:23;8.02;;;3.00;;
49472;SDS011;73594;50.944;6.950;2023-11-21T09:29:48;4.68;;;2.83;;
49472;SDS011;73594;50.944;6.950;2023-11-21T09:32:14;5.30;;;4.22;;
49472;SDS011;73594;50.944;6.950;2023-11-21T09:34:43;7.07;;;4.05;;
49472;SDS011;73594;50.944;6.950;2023-11-21T09:37:09;7.60;;;3.05;;
49472;SDS011;73594;50.944;6.950;2023-11-21T09:39:34;6.95;;;5.25;;
49472;SDS011;73594;50.944;6.950;2023-11-21T09:42:04;4.28;;;3.22;;
49472;SDS011;73594;50.944;6.950;2023-11-21T09:44:37;6.95;;;3.47;;
49472;SDS011;73594;50.944;6.950;2023-11-21T09:47:18;5.68;;;3.83;;
49472;SDS011;73594;50.944;6.950;2023-11-21T09:49:49;9.30;;;3.00;;
49472;SDS011;73594;50.944;6.950;2023-11-21T09:52:22;9.68;;;3.58;;
49472;SDS011;73594;50.944;6.950;2023-11-21T09:54:53;6.05;;;3.60;;
49472;SDS011;73594;50.944;6.950;2023-11-21T09:57:20;6.10;;;4.20;;
49472;SDS011;73594;50.944;6.950;2023-11-21T09:59:51;3.45;;;2.60;;
49472;SDS011;73594;50.944;6.950;2023-11-21T10:02:27;7.50;;;2.25;;
49472;SDS011;73594;50.944;6.950;2023-11-21T10:04:58;4.22;;;3.53;;
49472;SDS011;73594;50.944;6.950;2023-11-21T10:07:25;11.70;;;5.18;;
49472;SDS011;73594;50.944;6.950;2023-11-21T10:09:51;9.10;;;4.15;;
49472;SDS011;73594;50.944;6.950;2023-11-21T10:12:22;4.13;;;2.47;;
49472;SDS011;73594;50.944;6.950;2023-11-21T10:14:49;5.03;;;1.60;;
49472;SDS011;73594;50.944;6.950;2023-11-21T10:17:18;8.27;;;2.72;;
49472;SDS011;73594;50.944;6.950;2023-11-21T10:19:46;10.15;;;3.83;;
49472;SDS011;73594;50.944;6.950;2023-11-21T10:22:13;5.53;;;3.60;;
49472;SDS011;73594;50.944;6.950;2023-11-21T10:24:40;5.47;;;3.92;;
49472;SDS011;73594;50.944;6.950;2023-11-21T10:27:07;4.18;;;3.42;;
49472;SDS011;73594;50.944;6.950;2023-11-21T10:29:32;9.27;;;2.15;;
49472;SDS011;73594;50.944;6.950;2023-11-21T10:32:01;6.28;;;3.00;;
49472;SDS011;73594;50.944;6.950;2023-11-21T10:34:27;3.03;;;2.30;;
49472;SDS011;73594;50.944;6.950;2023-11-21T10:36:52;6.32;;;3.45;;
49472;SDS011;73594;50.944;6.950;2023-11-21T10:39:18;9.93;;;5.25;;
49472;SDS011;73594;50.944;6.950;2023-11-21T10:41:48;2.50;;;2.30;;
49472;SDS011;73594;50.944;6.950;2023-11-21T10:44:16;7.45;;;3.00;;
49472;SDS011;73594;50.944;6.950;2023-11-21T10:46:46;6.57;;;4.18;;
49472;SDS011;73594;50.944;6.950;2023-11-21T10:49:16;4.90;;;2.60;;
49472;SDS011;73594;50.944;6.950;2023-11-21T10:51:44;9.02;;;3.15;;
49472;SDS011;73594;50.944;6.950;2023-11-21T10:54:09;3.95;;;3.13;;
49472;SDS011;73594;50.944;6.950;2023-11-21T10:56:34;4.50;;;3.15;;
49472;SDS011;73594;50.944;6.950;2023-11-21T10:59:05;6.22;;;2.88;;
49472;SDS011;73594;50.944;6.950;2023-11-21T11:01:34;11.45;;;4.13;;
49472;SDS011;73594;50.944;6.950;2023-11-21T11:04:01;5.72;;;4.50;;
49472;SDS011;73594;50.944;6.950;2023-11-21T11:06:31;6.82;;;5.15;;
49472;SDS011;73594;50.944;6.950;2023-11-21T11:08:58;6.55;;;3.78;;
49472;SDS011;73594;50.944;6.950;2023-11-21T11:11:25;9.55;;;4.50;;
49472;SDS011;73594;50.944;6.950;2023-11-21T11:13:50;18.55;;;5.18;;
49472;SDS011;73594;50.944;6.950;2023-11-21T11:16:18;8.00;;;4.07;;
49472;SDS011;73594;50.944;6.950;2023-11-21T11:18:44;8.43;;;2.25;;
49472;SDS011;73594;50.944;6.950;2023-11-21T11:35:19;6.30;;;2.83;;
49472;SDS011;73594;50.944;6.950;2023-11-21T11:37:51;4.43;;;2.85;;
49472;SDS011;73594;50.944;6.950;2023-11-21T11:40:18;5.65;;;2.85;;
49472;SDS011;73594;50.944;6.950;2023-11-21T11:43:00;6.07;;;3.05;;
49472;SDS011;73594;50.944;6.950;2023-11-21T11:45:32;9.68;;;4.38;;
49472;SDS011;73594;50.944;6.950;2023-11-21T11:48:00;10.45;;;3.97;;
49472;SDS011;73594;50.944;6.950;2023-11-21T11:50:27;11.85;;;1.50;;
49472;SDS011;73594;50.944;6.950;2023-11-21T11:52:53;4.07;;;1.67;;
49472;SDS011;73594;50.944;6.950;2023-11-21T11:55:22;6.88;;;1.83;;
49472;SDS011;73594;50.944;6.950;2023-11-21T11:57:50;10.25;;;2.80;;
49472;SDS011;73594;50.944;6.950;2023-11-21T12:00:20;2.55;;;1.73;;
49472;SDS011;73594;50.944;6.950;2023-11-21T12:03:02;4.35;;;3.35;;
49472;SDS011;73594;50.944;6.950;2023-11-21T12:05:29;6.25;;;2.58;;
49472;SDS011;73594;50.944;6.950;2023-11-21T12:08:02;3.17;;;2.45;;
49472;SDS011;73594;50.944;6.950;2023-11-21T12:10:30;5.72;;;2.53;;
49472;SDS011;73594;50.944;6.950;2023-11-21T12:13:00;2.70;;;2.47;;
49472;SDS011;73594;50.944;6.950;2023-11-21T12:15:27;9.88;;;3.45;;
49472;SDS011;73594;50.944;6.950;2023-11-21T12:17:56;4.20;;;2.47;;
49472;SDS011;73594;50.944;6.950;2023-11-21T12:20:24;13.73;;;5.05;;
49472;SDS011;73594;50.944;6.950;2023-11-21T12:22:52;6.97;;;3.88;;
49472;SDS011;73594;50.944;6.950;2023-11-21T12:25:23;6.43;;;2.67;;
49472;SDS011;73594;50.944;6.950;2023-11-21T12:27:52;10.05;;;4.03;;
49472;SDS011;73594;50.944;6.950;2023-11-21T12:30:18;6.53;;;2.78;;
49472;SDS011;73594;50.944;6.950;2023-11-21T12:32:50;6.35;;;2.67;;
49472;SDS011;73594;50.944;6.950;2023-11-21T12:35:17;6.10;;;3.50;;
49472;SDS011;73594;50.944;6.950;2023-11-21T12:37:46;5.75;;;2.67;;
49472;SDS011;73594;50.944;6.950;2023-11-21T12:40:13;4.63;;;3.92;;
49472;SDS011;73594;50.944;6.950;2023-11-21T12:42:43;6.25;;;3.65;;
49472;SDS011;73594;50.944;6.950;2023-11-21T12:45:24;9.40;;;5.13;;
49472;SDS011;73594;50.944;6.950;2023-11-21T12:47:51;7.65;;;2.83;;
49472;SDS011;73594;50.944;6.950;2023-11-21T12:50:22;5.18;;;3.88;;
49472;SDS011;73594;50.944;6.950;2023-11-21T12:52:49;3.00;;;2.60;;
49472;SDS011;73594;50.944;6.950;2023-11-21T12:55:21;8.88;;;3.30;;
49472;SDS011;73594;50.944;6.950;2023-11-21T12:57:51;3.13;;;2.88;;
49472;SDS011;73594;50.944;6.950;2023-11-21T13:00:20;11.88;;;3.53;;
49472;SDS011;73594;50.944;6.950;2023-11-21T13:02:53;20.70;;;6.15;;
49472;SDS011;73594;50.944;6.950;2023-11-21T13:05:23;8.88;;;3.13;;
49472;SDS011;73594;50.944;6.950;2023-11-21T13:07:50;12.60;;;2.85;;
49472;SDS011;73594;50.944;6.950;2023-11-21T13:10:19;11.43;;;4.47;;
49472;SDS011;73594;50.944;6.950;2023-11-21T13:12:45;6.68;;;4.80;;
49472;SDS011;73594;50.944;6.950;2023-11-21T13:15:16;7.32;;;3.10;;
49472;SDS011;73594;50.944;6.950;2023-11-21T13:17:42;7.10;;;3.70;;
49472;SDS011;73594;50.944;6.950;2023-11-21T13:20:09;4.32;;;3.92;;
49472;SDS011;73594;50.944;6.950;2023-11-21T13:22:44;10.35;;;4.70;;
49472;SDS011;73594;50.944;6.950;2023-11-21T13:25:10;7.00;;;3.25;;
49472;SDS011;73594;50.944;6.950;2023-11-21T13:27:36;16.67;;;3.90;;
49472;SDS011;73594;50.944;6.950;2023-11-21T13:30:02;10.13;;;3.22;;
49472;SDS011;73594;50.944;6.950;2023-11-21T13:32:28;10.10;;;3.53;;
49472;SDS011;73594;50.944;6.950;2023-11-21T13:34:54;7.47;;;3.28;;
49472;SDS011;73594;50.944;6.950;2023-11-21T13:37:20;15.18;;;6.18;;
49472;SDS011;73594;50.944;6.950;2023-11-21T13:39:45;4.60;;;3.67;;
49472;SDS011;73594;50.944;6.950;2023-11-21T13:42:15;12.20;;;6.55;;
49472;SDS011;73594;50.944;6.950;2023-11-21T13:44:42;9.40;;;5.32;;
49472;SDS011;73594;50.944;6.950;2023-11-21T13:47:11;17.02;;;4.47;;
49472;SDS011;73594;50.944;6.950;2023-11-21T13:49:37;8.98;;;3.08;;
49472;SDS011;73594;50.944;6.950;2023-11-21T13:52:05;8.32;;;2.90;;
49472;SDS011;73594;50.944;6.950;2023-11-21T13:54:32;13.13;;;5.05;;
49472;SDS011;73594;50.944;6.950;2023-11-21T13:56:58;10.48;;;4.95;;
49472;SDS011;73594;50.944;6.950;2023-11-21T13:59:25;6.32;;;3.35;;
49472;SDS011;73594;50.944;6.950;2023-11-21T14:01:53;8.00;;;4.57;;
49472;SDS011;73594;50.944;6.950;2023-11-21T14:04:20;3.65;;;3.20;;
49472;SDS011;73594;50.944;6.950;2023-11-21T14:07:00;20.15;;;2.97;;
49472;SDS011;73594;50.944;6.950;2023-11-21T14:09:36;6.40;;;4.30;;
49472;SDS011;73594;50.944;6.950;2023-11-21T14:12:08;9.45;;;5.80;;
49472;SDS011;73594;50.944;6.950;2023-11-21T14:14:37;10.15;;;6.75;;
49472;SDS011;73594;50.944;6.950;2023-11-21T14:17:04;8.52;;;4.20;;
49472;SDS011;73594;50.944;6.950;2023-11-21T14:19:32;15.05;;;5.88;;
49472;SDS011;73594;50.944;6.950;2023-11-21T14:21:58;5.72;;;4.65;;
49472;SDS011;73594;50.944;6.950;2023-11-21T14:24:24;6.72;;;4.65;;
49472;SDS011;73594;50.944;6.950;2023-11-21T14:26:50;13.02;;;4.78;;
49472;SDS011;73594;50.944;6.950;2023-11-21T14:29:18;6.10;;;2.35;;
49472;SDS011;73594;50.944;6.950;2023-11-21T14:31:49;8.48;;;5.28;;
49472;SDS011;73594;50.944;6.950;2023-11-21T14:34:16;7.20;;;2.75;;
49472;SDS011;73594;50.944;6.950;2023-11-21T14:36:42;6.50;;;3.92;;
49472;SDS011;73594;50.944;6.950;2023-11-21T14:39:09;7.90;;;4.32;;
49472;SDS011;73594;50.944;6.950;2023-11-21T14:41:46;14.15;;;4.40;;
49472;SDS011;73594;50.944;6.950;2023-11-21T14:44:11;7.60;;;4.95;;
49472;SDS011;73594;50.944;6.950;2023-11-21T14:46:41;15.32;;;5.38;;
49472;SDS011;73594;50.944;6.950;2023-11-21T14:49:11;9.68;;;4.07;;
49472;SDS011;73594;50.944;6.950;2023-11-21T14:51:47;10.55;;;3.38;;
49472;SDS011;73594;50.944;6.950;2023-11-21T14:54:28;11.68;;;4.70;;
49472;SDS011;73594;50.944;6.950;2023-11-21T14:57:08;7.70;;;4.57;;
49472;SDS011;73594;50.944;6.950;2023-11-21T14:59:45;7.93;;;5.00;;